createdAt,value
2022-08-12T00:00:01.171Z,0.00
2022-08-12T00:01:01.173Z,0.00
2022-08-12T00:02:04.276Z,0.00
2022-08-12T00:03:01.160Z,0.00
2022-08-12T00:04:01.192Z,0.00
2022-08-12T00:05:01.127Z,0.00
2022-08-12T00:06:04.538Z,0.00
2022-08-12T00:07:01.115Z,0.00
2022-08-12T00:08:01.107Z,0.00
2022-08-12T00:09:01.129Z,0.00
2022-08-12T00:10:01.094Z,0.00
2022-08-12T00:11:09.811Z,0.00
2022-08-12T00:12:02.061Z,0.00
2022-08-12T00:13:01.053Z,0.00
2022-08-12T00:14:01.088Z,0.00
2022-08-12T00:15:01.049Z,0.00
2022-08-12T00:16:01.012Z,0.00
2022-08-12T00:17:01.009Z,0.00
2022-08-12T00:18:00.978Z,0.00
2022-08-12T00:19:00.967Z,0.00
2022-08-12T00:20:00.991Z,0.00
2022-08-12T00:21:01.021Z,0.00
2022-08-12T00:22:21.962Z,0.00
2022-08-12T00:23:00.947Z,0.00
2022-08-12T00:24:00.924Z,0.00
2022-08-12T00:25:00.945Z,0.00
2022-08-12T00:26:23.771Z,0.00
2022-08-12T00:27:01.910Z,0.00
2022-08-12T00:28:00.872Z,0.00
2022-08-12T00:29:00.912Z,0.00
2022-08-12T00:30:00.892Z,0.00
2022-08-12T00:31:00.845Z,0.00
2022-08-12T00:32:01.528Z,0.00
2022-08-12T00:33:01.026Z,0.00
2022-08-12T00:34:00.829Z,0.00
2022-08-12T00:35:00.933Z,0.00
2022-08-12T00:36:01.831Z,0.00
2022-08-12T00:37:10.696Z,0.00
2022-08-12T00:38:01.802Z,0.00
2022-08-12T00:39:00.778Z,0.00
2022-08-12T00:40:00.750Z,0.00
2022-08-12T00:41:00.881Z,0.00
2022-08-12T00:42:00.740Z,0.00
2022-08-12T00:43:00.782Z,0.00
2022-08-12T00:44:00.720Z,0.00
2022-08-12T00:45:00.698Z,0.00
2022-08-12T00:46:00.730Z,0.00
2022-08-12T00:47:00.686Z,0.00
2022-08-12T00:48:00.669Z,0.00
2022-08-12T00:49:00.661Z,0.00
2022-08-12T00:50:00.665Z,0.00
2022-08-12T00:51:00.690Z,0.00
2022-08-12T00:52:00.648Z,0.00
2022-08-12T00:53:00.608Z,0.00
2022-08-12T00:54:00.620Z,0.00
2022-08-12T00:55:00.595Z,0.00
2022-08-12T00:56:00.612Z,0.00
2022-08-12T00:57:00.583Z,0.00
2022-08-12T00:58:00.555Z,0.00
2022-08-12T00:59:00.582Z,0.00
2022-08-12T01:00:00.542Z,0.00
2022-08-12T01:01:00.639Z,0.00
2022-08-12T01:02:11.472Z,0.00
2022-08-12T01:03:01.543Z,0.00
2022-08-12T01:04:00.496Z,0.00
2022-08-12T01:05:00.493Z,0.00
2022-08-12T01:06:00.487Z,0.00
2022-08-12T01:07:00.493Z,0.00
2022-08-12T01:08:00.502Z,0.00
2022-08-12T01:09:00.459Z,0.00
2022-08-12T01:10:00.467Z,0.00
2022-08-12T01:11:00.448Z,0.00
2022-08-12T01:12:00.446Z,0.00
2022-08-12T01:13:07.456Z,0.00
2022-08-12T01:14:01.399Z,0.00
2022-08-12T01:15:00.378Z,0.00
2022-08-12T01:16:00.356Z,0.00
2022-08-12T01:17:00.389Z,0.00
2022-08-12T01:18:00.410Z,0.00
2022-08-12T01:19:00.368Z,0.00
2022-08-12T01:20:00.344Z,0.00
2022-08-12T01:21:00.343Z,0.00
2022-08-12T01:22:00.404Z,0.00
2022-08-12T01:23:00.291Z,0.00
2022-08-12T01:24:00.300Z,0.00
2022-08-12T01:25:01.318Z,0.00
2022-08-12T01:26:00.261Z,0.00
2022-08-12T01:27:00.279Z,0.00
2022-08-12T01:28:00.265Z,0.00
2022-08-12T01:29:00.254Z,0.00
2022-08-12T01:30:00.271Z,0.00
2022-08-12T01:31:00.244Z,0.00
2022-08-12T01:32:00.285Z,0.00
2022-08-12T01:33:00.203Z,0.00
2022-08-12T01:34:00.180Z,0.00
2022-08-12T01:35:00.236Z,0.00
2022-08-12T01:36:08.286Z,0.00
2022-08-12T01:37:01.152Z,0.00
2022-08-12T01:38:00.136Z,0.00
2022-08-12T01:39:00.137Z,0.00
2022-08-12T01:40:34.439Z,0.00
2022-08-12T01:41:01.226Z,0.00
2022-08-12T01:42:00.095Z,0.00
2022-08-12T01:43:00.134Z,0.00
2022-08-12T01:44:00.076Z,0.00
2022-08-12T01:45:00.065Z,0.00
2022-08-12T01:46:00.079Z,0.00
2022-08-12T01:47:00.075Z,0.00
2022-08-12T01:48:00.040Z,0.00
2022-08-12T01:49:00.008Z,0.00
2022-08-12T01:50:00.041Z,0.00
2022-08-12T01:51:00.418Z,0.00
2022-08-12T01:52:20.361Z,0.00
2022-08-12T01:53:00.972Z,0.00
2022-08-12T01:54:00.968Z,0.00
2022-08-12T01:54:59.948Z,0.00
2022-08-12T01:56:00.007Z,0.00
2022-08-12T01:56:59.967Z,0.00
2022-08-12T01:58:01.080Z,0.00
2022-08-12T01:58:59.921Z,0.00
2022-08-12T01:59:59.944Z,0.00
2022-08-12T02:00:59.932Z,0.00
2022-08-12T02:01:59.879Z,0.00
2022-08-12T02:02:59.921Z,0.00
2022-08-12T02:03:59.880Z,0.00
2022-08-12T02:04:59.908Z,0.00
2022-08-12T02:05:59.862Z,0.00
2022-08-12T02:06:59.821Z,0.00
2022-08-12T02:07:59.931Z,0.00
2022-08-12T02:08:59.818Z,0.00
2022-08-12T02:09:59.843Z,0.00
2022-08-12T02:10:59.783Z,0.00
2022-08-12T02:11:59.773Z,0.00
2022-08-12T02:12:59.828Z,0.00
2022-08-12T02:13:59.753Z,0.00
2022-08-12T02:14:59.755Z,0.00
2022-08-12T02:15:59.741Z,0.00
2022-08-12T02:16:59.746Z,0.00
2022-08-12T02:17:59.711Z,0.00
2022-08-12T02:18:59.735Z,0.00
2022-08-12T02:19:59.697Z,0.00
2022-08-12T02:20:59.694Z,0.00
2022-08-12T02:21:59.694Z,0.00
2022-08-12T02:22:59.668Z,0.00
2022-08-12T02:23:59.665Z,0.00
2022-08-12T02:24:59.637Z,0.00
2022-08-12T02:25:59.672Z,0.00
2022-08-12T02:26:59.626Z,0.00
2022-08-12T02:27:59.615Z,0.00
2022-08-12T02:29:00.607Z,0.00
2022-08-12T02:29:59.584Z,0.00
2022-08-12T02:30:59.580Z,0.00
2022-08-12T02:31:59.591Z,0.00
2022-08-12T02:32:59.572Z,0.00
2022-08-12T02:33:59.559Z,0.00
2022-08-12T02:34:59.532Z,0.00
2022-08-12T02:35:59.519Z,0.00
2022-08-12T02:37:02.565Z,0.00
2022-08-12T02:37:59.500Z,0.00
2022-08-12T02:38:59.510Z,0.00
2022-08-12T02:39:59.529Z,0.00
2022-08-12T02:40:59.487Z,0.00
2022-08-12T02:41:59.460Z,0.00
2022-08-12T02:42:59.451Z,0.00
2022-08-12T02:43:59.471Z,0.00
2022-08-12T02:44:59.422Z,0.00
2022-08-12T02:45:59.413Z,0.00
2022-08-12T02:46:59.413Z,0.00
2022-08-12T02:48:01.336Z,0.00
2022-08-12T02:48:59.488Z,0.00
2022-08-12T02:49:59.385Z,0.00
2022-08-12T02:50:59.602Z,0.00
2022-08-12T02:51:59.344Z,0.00
2022-08-12T02:52:59.382Z,0.00
2022-08-12T02:54:05.083Z,0.00
2022-08-12T02:55:00.317Z,0.00
2022-08-12T02:55:59.326Z,0.00
2022-08-12T02:56:59.306Z,0.00
2022-08-12T02:57:59.273Z,0.00
2022-08-12T02:59:00.331Z,0.00
2022-08-12T02:59:59.352Z,0.00
2022-08-12T03:00:59.347Z,0.00
2022-08-12T03:01:59.251Z,0.00
2022-08-12T03:02:59.387Z,0.00
2022-08-12T03:03:59.248Z,0.00
2022-08-12T03:04:59.246Z,0.00
2022-08-12T03:05:59.188Z,0.00
2022-08-12T03:06:59.185Z,0.00
2022-08-12T03:08:00.270Z,0.00
2022-08-12T03:08:59.157Z,0.00
2022-08-12T03:10:05.485Z,0.00
2022-08-12T03:11:00.269Z,0.00
2022-08-12T03:11:59.139Z,0.00
2022-08-12T03:12:59.128Z,0.00
2022-08-12T03:13:59.141Z,0.00
2022-08-12T03:14:59.161Z,0.00
2022-08-12T03:15:59.108Z,0.00
2022-08-12T03:16:59.078Z,0.00
2022-08-12T03:18:27.187Z,0.00
2022-08-12T03:19:00.072Z,0.00
2022-08-12T03:20:09.998Z,0.00
2022-08-12T03:21:00.100Z,4.00
2022-08-12T03:22:09.179Z,4.00
2022-08-12T03:23:00.022Z,4.00
2022-08-12T03:23:59.039Z,0.00
2022-08-12T03:24:59.030Z,0.00
2022-08-12T03:25:59.214Z,0.00
2022-08-12T03:27:00.480Z,4.00
2022-08-12T03:27:58.983Z,4.00
2022-08-12T03:28:58.964Z,4.00
2022-08-12T03:29:58.934Z,4.00
2022-08-12T03:30:58.954Z,4.00
2022-08-12T03:31:58.917Z,4.00
2022-08-12T03:32:58.907Z,4.00
2022-08-12T03:34:01.754Z,8.00
2022-08-12T03:34:58.895Z,8.00
2022-08-12T03:35:58.927Z,4.00
2022-08-12T03:36:58.870Z,8.00
2022-08-12T03:37:58.877Z,8.00
2022-08-12T03:38:58.882Z,8.00
2022-08-12T03:39:58.915Z,8.00
2022-08-12T03:40:58.817Z,8.00
2022-08-12T03:41:58.838Z,12.00
2022-08-12T03:42:58.800Z,12.00
2022-08-12T03:43:58.791Z,8.00
2022-08-12T03:44:58.820Z,12.00
2022-08-12T03:45:58.760Z,12.00
2022-08-12T03:46:58.760Z,16.00
2022-08-12T03:47:58.745Z,12.00
2022-08-12T03:48:58.744Z,16.00
2022-08-12T03:49:58.761Z,16.00
2022-08-12T03:50:58.730Z,20.00
2022-08-12T03:51:58.718Z,16.00
2022-08-12T03:52:58.756Z,20.00
2022-08-12T03:53:58.695Z,20.00
2022-08-12T03:54:58.679Z,20.00
2022-08-12T03:55:58.662Z,20.00
2022-08-12T03:56:58.640Z,24.00
2022-08-12T03:57:58.652Z,24.00
2022-08-12T03:58:58.663Z,24.00
2022-08-12T03:59:58.624Z,24.00
2022-08-12T04:00:58.689Z,28.00
2022-08-12T04:01:58.692Z,28.00
2022-08-12T04:02:58.591Z,28.00
2022-08-12T04:03:58.587Z,28.00
2022-08-12T04:04:58.598Z,32.00
2022-08-12T04:05:58.597Z,32.00
2022-08-12T04:06:58.555Z,32.00
2022-08-12T04:07:58.727Z,32.00
2022-08-12T04:08:58.527Z,32.00
2022-08-12T04:09:58.548Z,36.00
2022-08-12T04:10:58.525Z,36.00
2022-08-12T04:11:58.484Z,36.00
2022-08-12T04:12:58.489Z,36.00
2022-08-12T04:13:58.466Z,40.00
2022-08-12T04:14:58.503Z,40.00
2022-08-12T04:15:58.465Z,40.00
2022-08-12T04:16:58.437Z,40.00
2022-08-12T04:18:06.636Z,40.00
2022-08-12T04:18:59.428Z,40.00
2022-08-12T04:19:58.469Z,44.00
2022-08-12T04:20:58.448Z,44.00
2022-08-12T04:22:01.861Z,44.00
2022-08-12T04:22:59.394Z,44.00
2022-08-12T04:23:58.358Z,44.00
2022-08-12T04:24:58.372Z,48.00
2022-08-12T04:25:58.531Z,48.00
2022-08-12T04:26:58.373Z,48.00
2022-08-12T04:27:58.342Z,48.00
2022-08-12T04:28:59.322Z,48.00
2022-08-12T04:30:29.308Z,48.00
2022-08-12T04:30:59.345Z,52.00
2022-08-12T04:31:58.285Z,52.00
2022-08-12T04:32:58.270Z,52.00
2022-08-12T04:33:58.257Z,52.00
2022-08-12T04:34:58.264Z,52.00
2022-08-12T04:35:58.247Z,52.00
2022-08-12T04:36:58.265Z,52.00
2022-08-12T04:38:00.647Z,56.00
2022-08-12T04:38:59.747Z,56.00
2022-08-12T04:39:58.214Z,56.00
2022-08-12T04:40:58.192Z,60.00
2022-08-12T04:41:58.862Z,56.00
2022-08-12T04:42:58.153Z,56.00
2022-08-12T04:44:02.095Z,56.00
2022-08-12T04:44:58.165Z,60.00
2022-08-12T04:45:58.133Z,60.00
2022-08-12T04:46:58.179Z,60.00
2022-08-12T04:47:58.115Z,60.00
2022-08-12T04:48:58.109Z,60.00
2022-08-12T04:49:58.082Z,60.00
2022-08-12T04:50:58.107Z,60.00
2022-08-12T04:51:59.496Z,60.00
2022-08-12T04:52:58.057Z,60.00
2022-08-12T04:53:58.060Z,64.00
2022-08-12T04:54:58.036Z,64.00
2022-08-12T04:55:58.025Z,64.00
2022-08-12T04:57:04.042Z,64.00
2022-08-12T04:57:59.057Z,64.00
2022-08-12T04:58:58.000Z,68.00
2022-08-12T04:59:57.981Z,64.00
2022-08-12T05:00:57.968Z,64.00
2022-08-12T05:01:58.050Z,64.00
2022-08-12T05:02:58.044Z,64.00
2022-08-12T05:03:57.938Z,64.00
2022-08-12T05:05:00.979Z,68.00
2022-08-12T05:05:57.910Z,68.00
2022-08-12T05:06:57.929Z,68.00
2022-08-12T05:07:57.939Z,68.00
2022-08-12T05:08:57.914Z,68.00
2022-08-12T05:10:01.663Z,72.00
2022-08-12T05:10:57.864Z,72.00
2022-08-12T05:11:57.872Z,68.00
2022-08-12T05:12:57.846Z,68.00
2022-08-12T05:13:57.851Z,68.00
2022-08-12T05:14:57.865Z,72.00
2022-08-12T05:16:04.451Z,72.00
2022-08-12T05:16:58.807Z,72.00
2022-08-12T05:17:59.792Z,72.00
2022-08-12T05:18:57.785Z,72.00
2022-08-12T05:19:57.984Z,72.00
2022-08-12T05:20:57.801Z,72.00
2022-08-12T05:21:57.765Z,72.00
2022-08-12T05:23:02.580Z,72.00
2022-08-12T05:23:58.726Z,76.00
2022-08-12T05:24:57.762Z,72.00
2022-08-12T05:25:57.705Z,72.00
2022-08-12T05:26:57.724Z,72.00
2022-08-12T05:27:59.116Z,72.00
2022-08-12T05:28:57.685Z,76.00
2022-08-12T05:30:05.469Z,76.00
2022-08-12T05:30:58.664Z,76.00
2022-08-12T05:31:57.673Z,76.00
2022-08-12T05:32:59.838Z,76.00
2022-08-12T05:33:57.629Z,76.00
2022-08-12T05:34:57.617Z,76.00
2022-08-12T05:35:57.602Z,76.00
2022-08-12T05:36:57.608Z,76.00
2022-08-12T05:37:57.693Z,76.00
2022-08-12T05:38:57.556Z,76.00
2022-08-12T05:39:59.869Z,76.00
2022-08-12T05:40:57.541Z,76.00
2022-08-12T05:41:57.535Z,80.00
2022-08-12T05:42:57.595Z,80.00
2022-08-12T05:43:57.500Z,80.00
2022-08-12T05:44:57.504Z,80.00
2022-08-12T05:45:57.492Z,76.00
2022-08-12T05:46:57.483Z,80.00
2022-08-12T05:47:57.506Z,76.00
2022-08-12T05:48:57.467Z,76.00
2022-08-12T05:49:57.455Z,76.00
2022-08-12T05:50:57.436Z,80.00
2022-08-12T05:51:57.432Z,80.00
2022-08-12T05:52:57.425Z,80.00
2022-08-12T05:53:57.507Z,80.00
2022-08-12T05:54:58.049Z,84.00
2022-08-12T05:55:57.398Z,84.00
2022-08-12T05:56:57.364Z,80.00
2022-08-12T05:57:57.387Z,80.00
2022-08-12T05:58:57.364Z,80.00
2022-08-12T05:59:57.365Z,84.00
2022-08-12T06:00:57.341Z,84.00
2022-08-12T06:02:10.885Z,84.00
2022-08-12T06:02:58.391Z,84.00
2022-08-12T06:03:57.301Z,84.00
2022-08-12T06:04:57.286Z,84.00
2022-08-12T06:05:57.348Z,80.00
2022-08-12T06:06:57.283Z,84.00
2022-08-12T06:08:03.212Z,84.00
2022-08-12T06:08:57.244Z,84.00
2022-08-12T06:09:57.340Z,88.00
2022-08-12T06:10:59.529Z,84.00
2022-08-12T06:12:05.841Z,88.00
2022-08-12T06:12:58.239Z,88.00
2022-08-12T06:13:57.187Z,84.00
2022-08-12T06:14:57.182Z,84.00
2022-08-12T06:15:57.197Z,88.00
2022-08-12T06:16:57.186Z,88.00
2022-08-12T06:17:57.153Z,88.00
2022-08-12T06:18:57.250Z,88.00
2022-08-12T06:20:26.907Z,88.00
2022-08-12T06:20:58.113Z,88.00
2022-08-12T06:21:57.104Z,88.00
2022-08-12T06:22:57.199Z,88.00
2022-08-12T06:23:57.084Z,88.00
2022-08-12T06:24:57.082Z,92.00
2022-08-12T06:25:57.058Z,88.00
2022-08-12T06:26:57.055Z,88.00
2022-08-12T06:28:06.284Z,88.00
2022-08-12T06:28:58.075Z,92.00
2022-08-12T06:30:08.059Z,92.00
2022-08-12T06:31:24.327Z,88.00
2022-08-12T06:31:57.985Z,88.00
2022-08-12T06:33:11.376Z,92.00
2022-08-12T06:34:52.879Z,96.00
2022-08-12T06:35:26.573Z,96.00
2022-08-12T06:35:58.843Z,92.00
2022-08-12T06:36:56.936Z,92.00
2022-08-12T06:37:57.666Z,96.00
2022-08-12T06:38:56.920Z,96.00
2022-08-12T06:40:01.545Z,96.00
2022-08-12T06:40:57.909Z,96.00
2022-08-12T06:42:27.743Z,96.00
2022-08-12T06:42:57.893Z,96.00
2022-08-12T06:44:05.695Z,96.00
2022-08-12T06:44:57.843Z,100.00
2022-08-12T06:45:56.848Z,100.00
2022-08-12T06:46:58.435Z,100.00
2022-08-12T06:47:56.834Z,96.00
2022-08-12T06:48:56.844Z,96.00
2022-08-12T06:49:56.792Z,100.00
2022-08-12T06:50:56.811Z,100.00
2022-08-12T06:51:57.335Z,100.00
2022-08-12T06:52:56.782Z,100.00
2022-08-12T06:53:56.796Z,100.00
2022-08-12T06:54:56.800Z,100.00
2022-08-12T06:55:58.534Z,100.00
2022-08-12T06:57:57.467Z,100.00
2022-08-12T06:58:07.663Z,100.00
2022-08-12T06:58:57.753Z,104.00
2022-08-12T06:59:56.693Z,104.00
2022-08-12T07:00:56.716Z,104.00
2022-08-12T07:01:56.685Z,100.00
2022-08-12T07:02:56.673Z,100.00
2022-08-12T07:04:05.150Z,104.00
2022-08-12T07:04:57.692Z,104.00
2022-08-12T07:05:56.622Z,104.00
2022-08-12T07:06:56.613Z,104.00
2022-08-12T07:07:56.611Z,104.00
2022-08-12T07:08:57.596Z,104.00
2022-08-12T07:10:05.717Z,104.00
2022-08-12T07:10:57.594Z,104.00
2022-08-12T07:11:56.580Z,104.00
2022-08-12T07:12:56.674Z,104.00
2022-08-12T07:14:11.935Z,108.00
2022-08-12T07:14:57.611Z,108.00
2022-08-12T07:15:56.702Z,104.00
2022-08-12T07:16:56.579Z,104.00
2022-08-12T07:17:56.559Z,108.00
2022-08-12T07:18:56.506Z,108.00
2022-08-12T07:20:01.935Z,108.00
2022-08-12T07:20:57.530Z,108.00
2022-08-12T07:21:59.697Z,108.00
2022-08-12T07:22:57.448Z,108.00
2022-08-12T07:23:56.442Z,112.00
2022-08-12T07:24:56.430Z,112.00
2022-08-12T07:25:58.395Z,108.00
2022-08-12T07:26:56.415Z,108.00
2022-08-12T07:27:56.388Z,108.00
2022-08-12T07:28:56.388Z,112.00
2022-08-12T07:29:58.249Z,112.00
2022-08-12T07:30:57.420Z,108.00
2022-08-12T07:31:56.360Z,112.00
2022-08-12T07:32:59.907Z,112.00
2022-08-12T07:33:57.316Z,112.00
2022-08-12T07:34:56.315Z,108.00
2022-08-12T07:35:56.353Z,112.00
2022-08-12T07:36:56.293Z,112.00
2022-08-12T07:37:56.305Z,116.00
2022-08-12T07:38:56.279Z,112.00
2022-08-12T07:39:59.743Z,116.00
2022-08-12T07:40:56.283Z,116.00
2022-08-12T07:41:56.266Z,112.00
2022-08-12T07:42:56.244Z,116.00
2022-08-12T07:43:57.509Z,116.00
2022-08-12T07:44:56.370Z,116.00
2022-08-12T07:45:56.262Z,116.00
2022-08-12T07:46:56.233Z,116.00
2022-08-12T07:47:56.183Z,116.00
2022-08-12T07:48:56.237Z,120.00
2022-08-12T07:50:04.247Z,116.00
2022-08-12T07:50:57.225Z,120.00
2022-08-12T07:51:56.130Z,116.00
2022-08-12T07:52:56.121Z,120.00
2022-08-12T07:54:00.836Z,120.00
2022-08-12T07:54:57.148Z,120.00
2022-08-12T07:55:56.087Z,124.00
2022-08-12T07:56:56.117Z,124.00
2022-08-12T07:57:56.086Z,120.00
2022-08-12T07:58:56.068Z,124.00
2022-08-12T07:59:56.303Z,124.00
2022-08-12T08:00:56.132Z,124.00
2022-08-12T08:01:56.126Z,124.00
2022-08-12T08:02:56.051Z,124.00
2022-08-12T08:03:56.011Z,128.00
2022-08-12T08:04:56.004Z,128.00
2022-08-12T08:05:56.065Z,124.00
2022-08-12T08:06:55.970Z,128.00
2022-08-12T08:07:55.992Z,128.00
2022-08-12T08:08:55.960Z,132.00
2022-08-12T08:09:58.624Z,132.00
2022-08-12T08:10:57.311Z,128.00
2022-08-12T08:11:55.919Z,132.00
2022-08-12T08:12:55.899Z,132.00
2022-08-12T08:13:55.907Z,132.00
2022-08-12T08:14:55.947Z,132.00
2022-08-12T08:16:04.171Z,136.00
2022-08-12T08:16:56.873Z,136.00
2022-08-12T08:17:55.866Z,136.00
2022-08-12T08:18:55.868Z,136.00
2022-08-12T08:20:02.978Z,136.00
2022-08-12T08:20:56.889Z,140.00
2022-08-12T08:21:55.805Z,140.00
2022-08-12T08:22:55.798Z,144.00
2022-08-12T08:23:58.147Z,144.00
2022-08-12T08:24:56.846Z,144.00
2022-08-12T08:25:55.786Z,148.00
2022-08-12T08:26:55.760Z,148.00
2022-08-12T08:27:55.767Z,152.00
2022-08-12T08:28:55.767Z,152.00
2022-08-12T08:29:55.739Z,152.00
2022-08-12T08:30:55.764Z,152.00
2022-08-12T08:31:55.748Z,156.00
2022-08-12T08:32:55.704Z,160.00
2022-08-12T08:34:04.358Z,160.00
2022-08-12T08:34:56.656Z,160.00
2022-08-12T08:35:55.680Z,164.00
2022-08-12T08:36:55.669Z,160.00
2022-08-12T08:37:55.661Z,160.00
2022-08-12T08:38:58.273Z,164.00
2022-08-12T08:39:55.660Z,164.00
2022-08-12T08:40:55.601Z,164.00
2022-08-12T08:42:18.802Z,164.00
2022-08-12T08:42:56.610Z,168.00
2022-08-12T08:43:55.583Z,168.00
2022-08-12T08:44:57.960Z,168.00
2022-08-12T08:45:55.561Z,168.00
2022-08-12T08:46:55.556Z,168.00
2022-08-12T08:48:00.130Z,172.00
2022-08-12T08:48:59.459Z,172.00
2022-08-12T08:49:55.493Z,172.00
2022-08-12T08:51:04.390Z,172.00
2022-08-12T08:51:56.476Z,172.00
2022-08-12T08:52:55.752Z,172.00
2022-08-12T08:53:58.307Z,172.00
2022-08-12T08:55:02.035Z,172.00
2022-08-12T08:56:05.508Z,176.00
2022-08-12T08:57:01.237Z,180.00
2022-08-12T08:57:58.578Z,180.00
2022-08-12T08:59:05.187Z,184.00
2022-08-12T09:00:02.520Z,184.00
2022-08-12T09:00:57.829Z,188.00
2022-08-12T09:01:57.350Z,188.00
2022-08-12T09:02:59.121Z,192.00
2022-08-12T09:05:09.770Z,196.00
2022-08-12T09:05:12.700Z,200.00
2022-08-12T09:06:02.918Z,200.00
2022-08-12T09:06:59.786Z,204.00
2022-08-12T09:08:08.928Z,212.00
2022-08-12T09:08:58.041Z,212.00
2022-08-12T09:10:02.601Z,220.00
2022-08-12T09:10:59.803Z,228.00
2022-08-12T09:12:11.175Z,232.00
2022-08-12T09:13:01.496Z,236.00
2022-08-12T09:14:11.167Z,248.00
2022-08-12T09:14:57.569Z,256.00
2022-08-12T09:15:59.393Z,260.00
2022-08-12T09:17:02.322Z,264.00
2022-08-12T09:17:57.157Z,268.00
2022-08-12T09:19:27.696Z,272.00
2022-08-12T09:19:58.943Z,272.00
2022-08-12T09:21:19.000Z,276.00
2022-08-12T09:22:00.445Z,272.00
2022-08-12T09:23:07.715Z,276.00
2022-08-12T09:24:06.130Z,276.00
2022-08-12T09:25:01.259Z,280.00
2022-08-12T09:26:00.076Z,284.00
2022-08-12T09:27:19.210Z,284.00
2022-08-12T09:28:03.345Z,288.00
2022-08-12T09:29:00.409Z,288.00
2022-08-12T09:30:08.607Z,288.00
2022-08-12T09:30:58.826Z,292.00
2022-08-12T09:32:07.612Z,296.00
2022-08-12T09:33:14.494Z,300.00
2022-08-12T09:34:27.449Z,300.00
2022-08-12T09:34:58.602Z,304.00
2022-08-12T09:36:04.602Z,304.00
2022-08-12T09:37:02.859Z,308.00
2022-08-12T09:38:28.437Z,308.00
2022-08-12T09:39:01.101Z,312.00
2022-08-12T09:40:05.580Z,312.00
2022-08-12T09:42:09.223Z,316.00
2022-08-12T09:42:33.583Z,316.00
2022-08-12T09:43:17.457Z,320.00
2022-08-12T09:44:05.231Z,320.00
2022-08-12T09:45:17.772Z,320.00
2022-08-12T09:46:11.333Z,324.00
2022-08-12T09:47:03.081Z,328.00
2022-08-12T09:48:00.085Z,328.00
2022-08-12T09:48:57.435Z,332.00
2022-08-12T09:49:57.966Z,336.00
2022-08-12T09:51:00.043Z,336.00
2022-08-12T09:52:00.282Z,336.00
2022-08-12T09:53:03.853Z,336.00
2022-08-12T09:54:08.804Z,340.00
2022-08-12T09:54:59.842Z,340.00
2022-08-12T09:56:05.459Z,344.00
2022-08-12T09:56:58.316Z,344.00
2022-08-12T09:58:07.912Z,344.00
2022-08-12T09:58:59.222Z,352.00
2022-08-12T10:00:14.634Z,352.00
2022-08-12T10:00:55.871Z,352.00
2022-08-12T10:02:42.849Z,352.00
2022-08-12T10:02:56.495Z,356.00
2022-08-12T10:04:03.449Z,360.00
2022-08-12T10:04:55.721Z,364.00
2022-08-12T10:06:27.897Z,368.00
2022-08-12T10:06:57.942Z,368.00
2022-08-12T10:07:54.700Z,372.00
2022-08-12T10:08:54.758Z,376.00
2022-08-12T10:09:57.488Z,376.00
2022-08-12T10:10:54.648Z,380.00
2022-08-12T10:12:11.272Z,384.00
2022-08-12T10:13:08.424Z,384.00
2022-08-12T10:13:55.669Z,384.00
2022-08-12T10:14:54.735Z,388.00
2022-08-12T10:16:01.974Z,388.00
2022-08-12T10:16:55.613Z,392.00
2022-08-12T10:18:06.047Z,396.00
2022-08-12T10:18:55.585Z,400.00
2022-08-12T10:19:54.531Z,404.00
2022-08-12T10:20:55.549Z,408.00
2022-08-12T10:21:56.910Z,412.00
2022-08-12T10:22:55.148Z,416.00
2022-08-12T10:23:56.865Z,420.00
2022-08-12T10:24:54.480Z,428.00
2022-08-12T10:26:36.051Z,432.00
2022-08-12T10:26:55.453Z,436.00
2022-08-12T10:28:05.805Z,440.00
2022-08-12T10:29:02.416Z,440.00
2022-08-12T10:30:40.899Z,448.00
2022-08-12T10:30:59.338Z,452.00
2022-08-12T10:32:21.184Z,456.00
2022-08-12T10:32:56.426Z,460.00
2022-08-12T10:34:06.228Z,460.00
2022-08-12T10:34:57.123Z,464.00
2022-08-12T10:35:54.355Z,464.00
2022-08-12T10:36:54.370Z,468.00
2022-08-12T10:38:38.651Z,452.00
2022-08-12T10:38:56.482Z,456.00
2022-08-12T10:40:08.218Z,456.00
2022-08-12T10:40:55.480Z,460.00
2022-08-12T10:41:58.075Z,460.00
2022-08-12T10:42:54.299Z,460.00
2022-08-12T10:43:56.935Z,460.00
2022-08-12T10:44:54.277Z,456.00
2022-08-12T10:45:54.288Z,460.00
2022-08-12T10:46:54.253Z,460.00
2022-08-12T10:48:14.977Z,460.00
2022-08-12T10:48:58.020Z,460.00
2022-08-12T10:50:03.009Z,456.00
2022-08-12T10:50:56.710Z,460.00
2022-08-12T10:52:33.390Z,456.00
2022-08-12T10:52:55.176Z,456.00
2022-08-12T10:53:54.170Z,456.00
2022-08-12T10:54:55.296Z,456.00
2022-08-12T10:55:56.063Z,456.00
2022-08-12T10:56:54.161Z,456.00
2022-08-12T10:58:27.967Z,456.00
2022-08-12T10:58:55.111Z,456.00
2022-08-12T11:00:30.159Z,452.00
2022-08-12T11:01:49.238Z,456.00
2022-08-12T11:04:20.890Z,452.00
2022-08-12T11:04:25.225Z,460.00
2022-08-12T11:04:26.564Z,456.00
2022-08-12T11:04:55.607Z,464.00
2022-08-12T11:07:06.491Z,476.00
2022-08-12T11:07:09.188Z,468.00
2022-08-12T11:08:36.444Z,488.00
2022-08-12T11:08:55.029Z,500.00
2022-08-12T11:09:59.803Z,508.00
2022-08-12T11:10:54.992Z,516.00
2022-08-12T11:12:35.370Z,524.00
2022-08-12T11:12:59.389Z,540.00
2022-08-12T11:13:54.968Z,548.00
2022-08-12T11:14:54.944Z,564.00
2022-08-12T11:16:04.179Z,584.00
2022-08-12T11:17:34.585Z,624.00
2022-08-12T11:17:55.081Z,676.00
2022-08-12T11:18:54.916Z,716.00
2022-08-12T11:19:53.890Z,720.00
2022-08-12T11:20:53.880Z,688.00
2022-08-12T11:21:57.628Z,688.00
2022-08-12T11:22:57.879Z,740.00
2022-08-12T11:23:54.880Z,764.00
2022-08-12T11:24:55.395Z,756.00
2022-08-12T11:25:58.185Z,712.00
2022-08-12T11:26:54.839Z,688.00
2022-08-12T11:27:53.802Z,684.00
2022-08-12T11:29:05.364Z,684.00
2022-08-12T11:30:05.747Z,688.00
2022-08-12T11:30:55.011Z,696.00
2022-08-12T11:32:01.650Z,700.00
2022-08-12T11:32:54.750Z,708.00
2022-08-12T11:34:05.426Z,720.00
2022-08-12T11:34:55.400Z,728.00
2022-08-12T11:35:59.196Z,736.00
2022-08-12T11:36:54.694Z,744.00
2022-08-12T11:37:59.025Z,752.00
2022-08-12T11:38:54.719Z,760.00
2022-08-12T11:40:54.653Z,776.00
2022-08-12T11:41:54.093Z,776.00
2022-08-12T11:42:53.620Z,784.00
2022-08-12T11:43:58.553Z,788.00
2022-08-12T11:44:54.620Z,796.00
2022-08-12T11:45:56.580Z,808.00
2022-08-12T11:46:53.580Z,820.00
2022-08-12T11:47:55.575Z,824.00
2022-08-12T11:48:53.559Z,832.00
2022-08-12T11:49:53.585Z,836.00
2022-08-12T11:50:53.528Z,840.00
2022-08-12T11:51:57.744Z,848.00
2022-08-12T11:52:55.747Z,860.00
2022-08-12T11:53:57.432Z,872.00
2022-08-12T11:54:54.617Z,888.00
2022-08-12T11:55:53.505Z,900.00
2022-08-12T11:57:00.199Z,912.00
2022-08-12T11:58:13.059Z,928.00
2022-08-12T12:01:58.505Z,936.00
2022-08-12T12:02:03.158Z,972.00
2022-08-12T12:02:54.656Z,980.00
2022-08-12T12:03:54.780Z,988.00
2022-08-12T12:04:53.823Z,1000.00
2022-08-12T12:05:53.393Z,1004.00
2022-08-12T12:06:54.361Z,1016.00
2022-08-12T12:08:40.947Z,1028.00
2022-08-12T12:08:54.394Z,1032.00
2022-08-12T12:09:53.907Z,1044.00
2022-08-12T12:10:53.337Z,1052.00
2022-08-12T12:11:53.326Z,1060.00
2022-08-12T12:12:53.329Z,1064.00
2022-08-12T12:14:07.253Z,1072.00
2022-08-12T12:14:55.881Z,1076.00
2022-08-12T12:15:53.355Z,1084.00
2022-08-12T12:16:53.277Z,1088.00
2022-08-12T12:17:55.747Z,1092.00
2022-08-12T12:18:53.256Z,1096.00
2022-08-12T12:19:53.387Z,1100.00
2022-08-12T12:20:53.236Z,1108.00
2022-08-12T12:21:53.215Z,1116.00
2022-08-12T12:22:53.213Z,1128.00
2022-08-12T12:23:53.207Z,1136.00
2022-08-12T12:24:54.303Z,1144.00
2022-08-12T12:26:07.368Z,1156.00
2022-08-12T12:26:59.547Z,1160.00
2022-08-12T12:28:05.144Z,1164.00
2022-08-12T12:28:54.941Z,1164.00
2022-08-12T12:30:18.915Z,1168.00
2022-08-12T12:30:54.958Z,1168.00
2022-08-12T12:32:10.249Z,1172.00
2022-08-12T12:32:54.112Z,1180.00
2022-08-12T12:33:56.813Z,1184.00
2022-08-12T12:35:13.740Z,1192.00
2022-08-12T12:36:17.069Z,1196.00
2022-08-12T12:36:54.767Z,1196.00
2022-08-12T12:38:03.443Z,1196.00
2022-08-12T12:38:54.031Z,1200.00
2022-08-12T12:39:55.642Z,1196.00
2022-08-12T12:40:53.015Z,1196.00
2022-08-12T12:42:42.889Z,1192.00
2022-08-12T12:42:56.067Z,1192.00
2022-08-12T12:44:03.991Z,1184.00
2022-08-12T12:44:54.065Z,1188.00
2022-08-12T12:45:52.970Z,1184.00
2022-08-12T12:46:54.781Z,1184.00
2022-08-12T12:47:52.951Z,1192.00
2022-08-12T12:48:52.929Z,1196.00